Terminal Aerodrome Forecast
Issued by NWS

Home | Current Version | Previous Version | Text Only | Print | Product List | Glossary On
Versions: 1 2 3 4 5 6 7 8 9 10 11 12 13 14 15 16 17 18 19 20 21 22 23 24 25 26 27 28
000
FTUS45 KBOI 300044 AAA
TAFJER
TAF AMD
KJER 300044Z 3001/3024 01010KT P6SM -TSRA SCT100CB BKN250
     FM300300 22009KT P6SM VCSH BKN100
     FM301500 26012G17KT P6SM SCT100=

USA.gov is the U.S. government's official web portal to all federal, state and local government web resources and services.